Youngstown, NY

9:54 AM EDT on September 01, 2014 (GMT -0400)
Chautauqua County-Dunkirk | Change Station
CLOSE
Current Station
Airport
Location: Dunkirk,
Elevation: 692 ft
Nearby Weather Stations

Elev 692 ft 42.49 °N, 79.28 °W | Updated 1 hour ago

Partly Cloudy
Partly Cloudy
73 °F
Feels Like 73 °F
N
9
Wind Variable Wind from South

Today
High -- | Low -- °F
--% Chance of Precip.
Yesterday
High -- | Low -- °F
Precip. -- in
6:40 AM 7:51 PM
Waxing Crescent, 41% visible
Pressure 29.97 in
Visibility 10.0 miles
Clouds Few 1900 ft
Few 5500 ft
Dew Point 68 °F
Humidity 84%
Rainfall 0.00 in
Snow Depth Not available.
UV 2 out of 12
Pollen 8.90 out of 12
Air Quality Not available.
Flu Activity Not available.
METAR KDKK 011253Z AUTO 19008KT 10SM FEW019 FEW055 23/20 A2998 RMK AO2 SLP147 T02280200

More Conditions Fewer Conditions

Pressure 29.97 in
Visibility 10.0 miles
Clouds Few 1900 ft
Few 5500 ft
Dew Point 68 °F
Humidity 84%
Rainfall 0.00 in
Snow Depth Not available.
UV 2 out of 12
Pollen 8.90 out of 12
Air Quality Not available.
Flu Activity Not available.
METAR KDKK 011253Z AUTO 19008KT 10SM FEW019 FEW055 23/20 A2998 RMK AO2 SLP147 T02280200

More Conditions Fewer Conditions

10-Day Weather Forecast

Almanac

Astronomy

Sep. 01, 2014 Rise Set
Actual Time 6:40 AM EDT 7:51 PM EDT
Civil Twilight 6:10 AM EDT 8:20 PM EDT
Nautical Twilight 5:35 AM EDT 8:55 PM EDT
Astronomical Twilight 4:58 AM EDT 9:32 PM EDT
Moon 1:35 PM EDT 11:39 PM EDT
Length of Visible Light 14h 09m
Length of Day
13h 10m
Tomorrow will be 2m 50s shorter.
Waxing Crescent, 41% of the Moon is Illuminated
Today
Waxing Crescent
Sep 2
First Quarter
Sep 8
Full
Sep 15
Last Quarter
Sep 24
New

Today's Extremes

State Highs State Lows

Community

WunderPhotos

Upload Photos

1,749,222 photos uploaded!

Nearby

Air Quality

  Air Quality AQ Index Pollutant
Monday Moderate
PM2.5
Monday Moderate
OZONE
Tuesday Good
PM2.5
Tuesday Good
OZONE

Snow Depth

Station Depth Elevation
No new snow has been reported.

Earthquake Activity

City Distance Mag. Time & Date
No recent earthquake activity has been reported nearby.
Minimum magnitude displayed is 2.5.

Coastal Water Temperatures

Place Temperature
Buffalo, NY 73.0 °F

Nearby Weather Stations